sensor_id;sensor_type;location;lat;lon;timestamp;P1;durP1;ratioP1;P2;durP2;ratioP2
58139;SDS011;53185;47.378;18.922;2023-03-26T00:01:21;1.42;;;0.50;;
58139;SDS011;53185;47.378;18.922;2023-03-26T00:03:50;1.40;;;0.70;;
58139;SDS011;53185;47.378;18.922;2023-03-26T00:06:21;1.15;;;0.70;;
58139;SDS011;53185;47.378;18.922;2023-03-26T00:09:05;1.85;;;0.65;;
58139;SDS011;53185;47.378;18.922;2023-03-26T00:11:34;1.35;;;0.50;;
58139;SDS011;53185;47.378;18.922;2023-03-26T00:14:01;1.27;;;0.40;;
58139;SDS011;53185;47.378;18.922;2023-03-26T00:16:30;0.68;;;0.22;;
58139;SDS011;53185;47.378;18.922;2023-03-26T00:18:58;1.17;;;0.52;;
58139;SDS011;53185;47.378;18.922;2023-03-26T00:21:26;0.73;;;0.30;;
58139;SDS011;53185;47.378;18.922;2023-03-26T00:23:57;0.60;;;0.43;;
58139;SDS011;53185;47.378;18.922;2023-03-26T00:26:26;1.73;;;0.70;;
58139;SDS011;53185;47.378;18.922;2023-03-26T00:28:57;0.82;;;0.40;;
58139;SDS011;53185;47.378;18.922;2023-03-26T00:31:26;1.00;;;0.50;;
58139;SDS011;53185;47.378;18.922;2023-03-26T00:33:53;0.40;;;0.32;;
58139;SDS011;53185;47.378;18.922;2023-03-26T00:36:22;0.73;;;0.40;;
58139;SDS011;53185;47.378;18.922;2023-03-26T00:38:53;0.90;;;0.50;;
58139;SDS011;53185;47.378;18.922;2023-03-26T00:41:21;1.35;;;0.62;;
58139;SDS011;53185;47.378;18.922;2023-03-26T00:43:54;1.75;;;0.65;;
58139;SDS011;53185;47.378;18.922;2023-03-26T00:46:24;0.85;;;0.50;;
58139;SDS011;53185;47.378;18.922;2023-03-26T00:48:53;6.05;;;0.43;;
58139;SDS011;53185;47.378;18.922;2023-03-26T00:51:25;2.08;;;0.40;;
58139;SDS011;53185;47.378;18.922;2023-03-26T00:53:53;1.00;;;0.43;;
58139;SDS011;53185;47.378;18.922;2023-03-26T00:56:21;8.63;;;0.68;;
58139;SDS011;53185;47.378;18.922;2023-03-26T00:58:48;0.77;;;0.55;;
58139;SDS011;53185;47.378;18.922;2023-03-26T01:01:18;1.10;;;0.62;;
58139;SDS011;53185;47.378;18.922;2023-03-26T01:03:54;0.22;;;0.20;;
58139;SDS011;53185;47.378;18.922;2023-03-26T01:06:36;1.00;;;0.60;;
58139;SDS011;53185;47.378;18.922;2023-03-26T01:09:15;0.98;;;0.70;;
58139;SDS011;53185;47.378;18.922;2023-03-26T01:11:44;3.15;;;0.40;;
58139;SDS011;53185;47.378;18.922;2023-03-26T01:14:16;0.35;;;0.35;;
58139;SDS011;53185;47.378;18.922;2023-03-26T01:16:52;0.65;;;0.47;;
58139;SDS011;53185;47.378;18.922;2023-03-26T01:22:16;1.48;;;0.75;;
58139;SDS011;53185;47.378;18.922;2023-03-26T01:24:45;1.08;;;0.47;;
58139;SDS011;53185;47.378;18.922;2023-03-26T01:36:16;0.50;;;0.40;;
58139;SDS011;53185;47.378;18.922;2023-03-26T01:39:11;0.57;;;0.43;;
58139;SDS011;53185;47.378;18.922;2023-03-26T01:41:48;0.70;;;0.47;;
58139;SDS011;53185;47.378;18.922;2023-03-26T01:44:34;0.83;;;0.70;;
58139;SDS011;53185;47.378;18.922;2023-03-26T01:47:08;0.30;;;0.20;;
58139;SDS011;53185;47.378;18.922;2023-03-26T01:49:37;1.05;;;0.30;;
58139;SDS011;53185;47.378;18.922;2023-03-26T01:52:14;1.05;;;0.30;;
58139;SDS011;53185;47.378;18.922;2023-03-26T01:54:47;0.70;;;0.50;;
58139;SDS011;53185;47.378;18.922;2023-03-26T01:57:29;0.32;;;0.20;;
58139;SDS011;53185;47.378;18.922;2023-03-26T02:05:29;2.20;;;1.08;;
58139;SDS011;53185;47.378;18.922;2023-03-26T02:10:51;1.62;;;0.80;;
58139;SDS011;53185;47.378;18.922;2023-03-26T02:13:24;0.62;;;0.50;;
58139;SDS011;53185;47.378;18.922;2023-03-26T02:15:59;1.85;;;0.55;;
58139;SDS011;53185;47.378;18.922;2023-03-26T02:18:27;1.02;;;0.73;;
58139;SDS011;53185;47.378;18.922;2023-03-26T02:21:11;0.50;;;0.50;;
58139;SDS011;53185;47.378;18.922;2023-03-26T02:23:50;1.00;;;0.50;;
58139;SDS011;53185;47.378;18.922;2023-03-26T02:26:24;1.73;;;0.62;;
58139;SDS011;53185;47.378;18.922;2023-03-26T02:28:52;1.35;;;0.55;;
58139;SDS011;53185;47.378;18.922;2023-03-26T02:31:19;0.73;;;0.55;;
58139;SDS011;53185;47.378;18.922;2023-03-26T02:33:47;0.40;;;0.30;;
58139;SDS011;53185;47.378;18.922;2023-03-26T02:36:15;0.65;;;0.57;;
58139;SDS011;53185;47.378;18.922;2023-03-26T02:38:46;0.77;;;0.65;;
58139;SDS011;53185;47.378;18.922;2023-03-26T02:41:13;0.80;;;0.43;;
58139;SDS011;53185;47.378;18.922;2023-03-26T02:43:42;5.70;;;0.65;;
58139;SDS011;53185;47.378;18.922;2023-03-26T02:46:11;1.87;;;0.50;;
58139;SDS011;53185;47.378;18.922;2023-03-26T02:48:41;0.37;;;0.30;;
58139;SDS011;53185;47.378;18.922;2023-03-26T02:51:10;0.82;;;0.35;;
58139;SDS011;53185;47.378;18.922;2023-03-26T02:53:38;0.68;;;0.50;;
58139;SDS011;53185;47.378;18.922;2023-03-26T02:56:08;0.95;;;0.60;;
58139;SDS011;53185;47.378;18.922;2023-03-26T02:58:38;0.45;;;0.40;;
58139;SDS011;53185;47.378;18.922;2023-03-26T03:01:06;1.27;;;0.60;;
58139;SDS011;53185;47.378;18.922;2023-03-26T03:03:34;2.50;;;0.80;;
58139;SDS011;53185;47.378;18.922;2023-03-26T03:06:03;4.37;;;1.27;;
58139;SDS011;53185;47.378;18.922;2023-03-26T03:08:32;4.78;;;1.33;;
58139;SDS011;53185;47.378;18.922;2023-03-26T03:11:07;2.70;;;1.05;;
58139;SDS011;53185;47.378;18.922;2023-03-26T03:13:36;1.70;;;1.12;;
58139;SDS011;53185;47.378;18.922;2023-03-26T03:16:04;3.67;;;1.62;;
58139;SDS011;53185;47.378;18.922;2023-03-26T03:18:31;5.12;;;1.00;;
58139;SDS011;53185;47.378;18.922;2023-03-26T03:20:59;5.10;;;1.23;;
58139;SDS011;53185;47.378;18.922;2023-03-26T03:23:27;4.05;;;1.23;;
58139;SDS011;53185;47.378;18.922;2023-03-26T03:25:56;2.22;;;0.73;;
58139;SDS011;53185;47.378;18.922;2023-03-26T03:28:24;3.90;;;1.25;;
58139;SDS011;53185;47.378;18.922;2023-03-26T03:30:51;1.15;;;0.60;;
58139;SDS011;53185;47.378;18.922;2023-03-26T03:33:19;2.90;;;0.88;;
58139;SDS011;53185;47.378;18.922;2023-03-26T03:35:47;4.25;;;1.30;;
58139;SDS011;53185;47.378;18.922;2023-03-26T03:38:16;1.70;;;0.57;;
58139;SDS011;53185;47.378;18.922;2023-03-26T03:40:44;3.55;;;0.65;;
58139;SDS011;53185;47.378;18.922;2023-03-26T03:43:12;2.25;;;0.93;;
58139;SDS011;53185;47.378;18.922;2023-03-26T03:45:40;2.87;;;0.73;;
58139;SDS011;53185;47.378;18.922;2023-03-26T03:48:08;4.35;;;1.23;;
58139;SDS011;53185;47.378;18.922;2023-03-26T03:50:36;1.98;;;1.02;;
58139;SDS011;53185;47.378;18.922;2023-03-26T03:53:03;1.98;;;0.80;;
58139;SDS011;53185;47.378;18.922;2023-03-26T03:55:32;6.47;;;0.80;;
58139;SDS011;53185;47.378;18.922;2023-03-26T03:58:00;1.05;;;0.80;;
58139;SDS011;53185;47.378;18.922;2023-03-26T04:00:28;1.48;;;0.80;;
58139;SDS011;53185;47.378;18.922;2023-03-26T04:02:57;1.50;;;0.85;;
58139;SDS011;53185;47.378;18.922;2023-03-26T04:05:25;1.70;;;0.80;;
58139;SDS011;53185;47.378;18.922;2023-03-26T04:07:52;1.65;;;0.80;;
58139;SDS011;53185;47.378;18.922;2023-03-26T04:10:22;2.33;;;0.82;;
58139;SDS011;53185;47.378;18.922;2023-03-26T04:12:52;5.85;;;1.55;;
58139;SDS011;53185;47.378;18.922;2023-03-26T04:15:20;2.12;;;1.23;;
58139;SDS011;53185;47.378;18.922;2023-03-26T04:17:48;2.50;;;1.33;;
58139;SDS011;53185;47.378;18.922;2023-03-26T04:20:15;3.20;;;1.15;;
58139;SDS011;53185;47.378;18.922;2023-03-26T04:22:43;4.35;;;1.40;;
58139;SDS011;53185;47.378;18.922;2023-03-26T04:25:11;6.32;;;1.55;;
58139;SDS011;53185;47.378;18.922;2023-03-26T04:27:41;3.50;;;1.92;;
58139;SDS011;53185;47.378;18.922;2023-03-26T04:30:11;3.12;;;1.77;;
58139;SDS011;53185;47.378;18.922;2023-03-26T04:32:41;4.18;;;1.80;;
58139;SDS011;53185;47.378;18.922;2023-03-26T04:35:12;7.18;;;1.80;;
58139;SDS011;53185;47.378;18.922;2023-03-26T04:37:43;6.47;;;2.35;;
58139;SDS011;53185;47.378;18.922;2023-03-26T04:40:16;2.80;;;1.60;;
58139;SDS011;53185;47.378;18.922;2023-03-26T04:42:48;3.70;;;1.58;;
58139;SDS011;53185;47.378;18.922;2023-03-26T04:45:16;2.78;;;1.35;;
58139;SDS011;53185;47.378;18.922;2023-03-26T04:47:51;13.65;;;2.20;;
58139;SDS011;53185;47.378;18.922;2023-03-26T04:50:19;5.40;;;2.03;;
58139;SDS011;53185;47.378;18.922;2023-03-26T04:52:46;3.08;;;1.70;;
58139;SDS011;53185;47.378;18.922;2023-03-26T04:55:20;6.43;;;2.12;;
58139;SDS011;53185;47.378;18.922;2023-03-26T04:57:56;5.53;;;1.85;;
58139;SDS011;53185;47.378;18.922;2023-03-26T05:00:27;6.00;;;1.80;;
58139;SDS011;53185;47.378;18.922;2023-03-26T05:02:58;3.08;;;1.45;;
58139;SDS011;53185;47.378;18.922;2023-03-26T05:05:27;5.20;;;2.00;;
58139;SDS011;53185;47.378;18.922;2023-03-26T05:07:56;4.97;;;1.75;;
58139;SDS011;53185;47.378;18.922;2023-03-26T05:10:23;3.50;;;1.70;;
58139;SDS011;53185;47.378;18.922;2023-03-26T05:12:51;3.62;;;1.80;;
58139;SDS011;53185;47.378;18.922;2023-03-26T05:15:20;4.40;;;1.58;;
58139;SDS011;53185;47.378;18.922;2023-03-26T05:17:48;7.68;;;1.80;;
58139;SDS011;53185;47.378;18.922;2023-03-26T05:20:17;11.20;;;5.75;;
58139;SDS011;53185;47.378;18.922;2023-03-26T05:22:47;5.65;;;2.97;;
58139;SDS011;53185;47.378;18.922;2023-03-26T05:25:16;6.47;;;3.33;;
58139;SDS011;53185;47.378;18.922;2023-03-26T05:27:44;5.43;;;2.12;;
58139;SDS011;53185;47.378;18.922;2023-03-26T05:30:13;5.75;;;2.28;;
58139;SDS011;53185;47.378;18.922;2023-03-26T05:32:42;4.80;;;2.45;;
58139;SDS011;53185;47.378;18.922;2023-03-26T05:35:10;4.32;;;1.77;;
58139;SDS011;53185;47.378;18.922;2023-03-26T05:37:39;6.35;;;4.00;;
58139;SDS011;53185;47.378;18.922;2023-03-26T05:40:06;7.85;;;2.83;;
58139;SDS011;53185;47.378;18.922;2023-03-26T05:42:39;12.43;;;2.42;;
58139;SDS011;53185;47.378;18.922;2023-03-26T05:45:09;8.48;;;2.10;;
58139;SDS011;53185;47.378;18.922;2023-03-26T05:47:37;3.45;;;1.87;;
58139;SDS011;53185;47.378;18.922;2023-03-26T05:50:05;3.08;;;1.60;;
58139;SDS011;53185;47.378;18.922;2023-03-26T05:52:34;2.72;;;1.60;;
58139;SDS011;53185;47.378;18.922;2023-03-26T05:55:05;7.47;;;2.40;;
58139;SDS011;53185;47.378;18.922;2023-03-26T05:57:46;11.02;;;2.22;;
58139;SDS011;53185;47.378;18.922;2023-03-26T06:00:16;5.55;;;2.22;;
58139;SDS011;53185;47.378;18.922;2023-03-26T06:02:44;4.55;;;2.10;;
58139;SDS011;53185;47.378;18.922;2023-03-26T06:05:15;5.03;;;1.73;;
58139;SDS011;53185;47.378;18.922;2023-03-26T06:07:43;2.58;;;1.25;;
58139;SDS011;53185;47.378;18.922;2023-03-26T06:10:12;10.13;;;1.42;;
58139;SDS011;53185;47.378;18.922;2023-03-26T06:12:44;11.35;;;5.75;;
58139;SDS011;53185;47.378;18.922;2023-03-26T06:15:12;5.12;;;1.55;;
58139;SDS011;53185;47.378;18.922;2023-03-26T06:17:39;2.25;;;1.33;;
58139;SDS011;53185;47.378;18.922;2023-03-26T06:20:08;2.95;;;1.60;;
58139;SDS011;53185;47.378;18.922;2023-03-26T06:22:36;5.22;;;1.92;;
58139;SDS011;53185;47.378;18.922;2023-03-26T06:25:06;5.00;;;1.65;;
58139;SDS011;53185;47.378;18.922;2023-03-26T06:27:34;1.50;;;1.27;;
58139;SDS011;53185;47.378;18.922;2023-03-26T06:30:02;2.55;;;1.30;;
58139;SDS011;53185;47.378;18.922;2023-03-26T06:32:31;2.80;;;1.55;;
58139;SDS011;53185;47.378;18.922;2023-03-26T06:34:59;2.37;;;1.25;;
58139;SDS011;53185;47.378;18.922;2023-03-26T06:37:26;2.03;;;1.05;;
58139;SDS011;53185;47.378;18.922;2023-03-26T06:39:54;2.80;;;1.33;;
58139;SDS011;53185;47.378;18.922;2023-03-26T06:42:22;5.20;;;1.60;;
58139;SDS011;53185;47.378;18.922;2023-03-26T06:45:10;2.87;;;1.37;;
58139;SDS011;53185;47.378;18.922;2023-03-26T06:47:42;2.37;;;1.15;;
58139;SDS011;53185;47.378;18.922;2023-03-26T06:50:11;1.65;;;0.88;;
58139;SDS011;53185;47.378;18.922;2023-03-26T06:52:41;3.62;;;0.98;;
58139;SDS011;53185;47.378;18.922;2023-03-26T06:55:09;2.87;;;1.25;;
58139;SDS011;53185;47.378;18.922;2023-03-26T06:57:37;1.85;;;1.30;;
58139;SDS011;53185;47.378;18.922;2023-03-26T07:00:05;4.07;;;1.77;;
58139;SDS011;53185;47.378;18.922;2023-03-26T07:02:39;4.37;;;2.50;;
58139;SDS011;53185;47.378;18.922;2023-03-26T07:05:21;3.30;;;2.10;;
58139;SDS011;53185;47.378;18.922;2023-03-26T07:07:56;2.70;;;2.03;;
58139;SDS011;53185;47.378;18.922;2023-03-26T07:10:43;2.87;;;2.00;;
58139;SDS011;53185;47.378;18.922;2023-03-26T07:13:11;4.45;;;1.90;;
58139;SDS011;53185;47.378;18.922;2023-03-26T07:15:47;1.95;;;1.70;;
58139;SDS011;53185;47.378;18.922;2023-03-26T07:18:15;4.75;;;2.55;;
58139;SDS011;53185;47.378;18.922;2023-03-26T07:20:43;4.18;;;2.10;;
58139;SDS011;53185;47.378;18.922;2023-03-26T07:23:12;4.80;;;2.08;;
58139;SDS011;53185;47.378;18.922;2023-03-26T07:25:42;4.82;;;2.05;;
58139;SDS011;53185;47.378;18.922;2023-03-26T07:30:59;3.28;;;1.98;;
58139;SDS011;53185;47.378;18.922;2023-03-26T07:33:36;3.85;;;2.10;;
58139;SDS011;53185;47.378;18.922;2023-03-26T07:36:17;3.78;;;1.98;;
58139;SDS011;53185;47.378;18.922;2023-03-26T07:41:41;2.53;;;1.92;;
58139;SDS011;53185;47.378;18.922;2023-03-26T07:46:52;5.22;;;2.65;;
58139;SDS011;53185;47.378;18.922;2023-03-26T07:49:20;4.00;;;2.30;;
58139;SDS011;53185;47.378;18.922;2023-03-26T07:51:52;3.85;;;1.58;;
58139;SDS011;53185;47.378;18.922;2023-03-26T07:54:20;6.32;;;2.95;;
58139;SDS011;53185;47.378;18.922;2023-03-26T07:56:50;5.12;;;2.45;;
58139;SDS011;53185;47.378;18.922;2023-03-26T08:05:39;2.85;;;1.48;;
58139;SDS011;53185;47.378;18.922;2023-03-26T08:11:39;5.35;;;2.03;;
58139;SDS011;53185;47.378;18.922;2023-03-26T08:22:10;5.97;;;1.83;;
58139;SDS011;53185;47.378;18.922;2023-03-26T08:27:35;6.78;;;2.37;;
58139;SDS011;53185;47.378;18.922;2023-03-26T08:35:02;4.32;;;1.90;;
58139;SDS011;53185;47.378;18.922;2023-03-26T08:37:30;4.22;;;2.05;;
58139;SDS011;53185;47.378;18.922;2023-03-26T08:40:12;7.75;;;2.22;;
58139;SDS011;53185;47.378;18.922;2023-03-26T08:48:22;4.47;;;1.50;;
58139;SDS011;53185;47.378;18.922;2023-03-26T08:59:13;8.38;;;3.62;;
58139;SDS011;53185;47.378;18.922;2023-03-26T09:13:47;2.80;;;1.73;;
58139;SDS011;53185;47.378;18.922;2023-03-26T09:35:10;5.95;;;2.60;;
58139;SDS011;53185;47.378;18.922;2023-03-26T09:51:19;5.18;;;2.12;;
58139;SDS011;53185;47.378;18.922;2023-03-26T09:54:11;2.05;;;1.23;;
58139;SDS011;53185;47.378;18.922;2023-03-26T10:16:22;15.88;;;4.65;;
58139;SDS011;53185;47.378;18.922;2023-03-26T10:21:49;9.95;;;3.58;;
58139;SDS011;53185;47.378;18.922;2023-03-26T10:32:55;9.82;;;4.15;;
58139;SDS011;53185;47.378;18.922;2023-03-26T10:41:40;3.35;;;1.75;;
58139;SDS011;53185;47.378;18.922;2023-03-26T10:52:22;15.40;;;6.15;;
58139;SDS011;53185;47.378;18.922;2023-03-26T10:57:58;20.52;;;7.68;;
58139;SDS011;53185;47.378;18.922;2023-03-26T11:00:32;1.80;;;1.08;;
58139;SDS011;53185;47.378;18.922;2023-03-26T11:03:16;10.73;;;4.05;;
58139;SDS011;53185;47.378;18.922;2023-03-26T11:14:02;6.82;;;2.70;;
58139;SDS011;53185;47.378;18.922;2023-03-26T11:19:15;6.12;;;2.92;;
58139;SDS011;53185;47.378;18.922;2023-03-26T11:30:06;4.07;;;1.30;;
58139;SDS011;53185;47.378;18.922;2023-03-26T11:32:43;4.37;;;2.05;;
58139;SDS011;53185;47.378;18.922;2023-03-26T11:38:20;2.50;;;1.20;;
58139;SDS011;53185;47.378;18.922;2023-03-26T11:40:55;6.50;;;2.67;;
58139;SDS011;53185;47.378;18.922;2023-03-26T11:43:28;8.35;;;3.45;;
58139;SDS011;53185;47.378;18.922;2023-03-26T11:46:00;3.62;;;1.50;;
58139;SDS011;53185;47.378;18.922;2023-03-26T11:48:31;3.00;;;1.33;;
58139;SDS011;53185;47.378;18.922;2023-03-26T11:51:07;4.18;;;1.52;;
58139;SDS011;53185;47.378;18.922;2023-03-26T11:53:44;2.12;;;1.23;;
58139;SDS011;53185;47.378;18.922;2023-03-26T12:02:29;2.53;;;1.20;;
58139;SDS011;53185;47.378;18.922;2023-03-26T12:07:51;7.80;;;2.53;;
58139;SDS011;53185;47.378;18.922;2023-03-26T12:12:53;21.62;;;9.18;;
58139;SDS011;53185;47.378;18.922;2023-03-26T12:15:22;4.85;;;2.47;;
58139;SDS011;53185;47.378;18.922;2023-03-26T12:17:52;12.10;;;5.60;;
58139;SDS011;53185;47.378;18.922;2023-03-26T12:23:00;11.52;;;3.95;;
58139;SDS011;53185;47.378;18.922;2023-03-26T12:25:34;1.27;;;0.60;;
58139;SDS011;53185;47.378;18.922;2023-03-26T12:30:56;3.50;;;0.90;;
58139;SDS011;53185;47.378;18.922;2023-03-26T12:37:02;6.82;;;3.37;;
58139;SDS011;53185;47.378;18.922;2023-03-26T12:39:39;4.55;;;2.10;;
58139;SDS011;53185;47.378;18.922;2023-03-26T12:42:32;3.78;;;1.80;;
58139;SDS011;53185;47.378;18.922;2023-03-26T12:45:49;7.10;;;3.22;;
58139;SDS011;53185;47.378;18.922;2023-03-26T12:48:35;1.58;;;0.77;;
58139;SDS011;53185;47.378;18.922;2023-03-26T12:56:53;0.93;;;0.68;;
58139;SDS011;53185;47.378;18.922;2023-03-26T13:44:07;1.87;;;0.90;;
58139;SDS011;53185;47.378;18.922;2023-03-26T13:46:44;7.37;;;1.67;;
58139;SDS011;53185;47.378;18.922;2023-03-26T13:49:26;3.00;;;1.27;;
58139;SDS011;53185;47.378;18.922;2023-03-26T13:52:01;2.22;;;1.10;;
58139;SDS011;53185;47.378;18.922;2023-03-26T14:09:13;0.93;;;0.50;;
58139;SDS011;53185;47.378;18.922;2023-03-26T14:16:58;2.40;;;1.00;;
58139;SDS011;53185;47.378;18.922;2023-03-26T14:19:55;5.78;;;2.97;;
58139;SDS011;53185;47.378;18.922;2023-03-26T14:30:53;19.83;;;5.87;;
58139;SDS011;53185;47.378;18.922;2023-03-26T14:36:03;2.80;;;1.40;;
58139;SDS011;53185;47.378;18.922;2023-03-26T14:46:53;1.15;;;0.57;;
58139;SDS011;53185;47.378;18.922;2023-03-26T14:53:32;3.78;;;1.08;;
58139;SDS011;53185;47.378;18.922;2023-03-26T15:14:28;4.97;;;2.70;;
58139;SDS011;53185;47.378;18.922;2023-03-26T15:32:23;2.12;;;1.00;;
58139;SDS011;53185;47.378;18.922;2023-03-26T15:46:48;7.12;;;3.37;;
58139;SDS011;53185;47.378;18.922;2023-03-26T15:51:50;1.65;;;0.50;;
58139;SDS011;53185;47.378;18.922;2023-03-26T15:57:54;4.10;;;1.95;;
58139;SDS011;53185;47.378;18.922;2023-03-26T16:00:28;3.17;;;1.37;;
58139;SDS011;53185;47.378;18.922;2023-03-26T16:05:54;3.35;;;0.80;;
58139;SDS011;53185;47.378;18.922;2023-03-26T16:17:03;3.15;;;1.65;;
58139;SDS011;53185;47.378;18.922;2023-03-26T16:22:41;5.20;;;1.55;;
58139;SDS011;53185;47.378;18.922;2023-03-26T16:36:37;12.43;;;3.83;;
58139;SDS011;53185;47.378;18.922;2023-03-26T16:39:21;7.32;;;2.87;;
58139;SDS011;53185;47.378;18.922;2023-03-26T16:41:56;4.32;;;2.03;;
58139;SDS011;53185;47.378;18.922;2023-03-26T16:53:21;5.37;;;2.72;;
58139;SDS011;53185;47.378;18.922;2023-03-26T16:58:32;9.77;;;4.40;;
58139;SDS011;53185;47.378;18.922;2023-03-26T17:06:24;12.70;;;2.15;;
58139;SDS011;53185;47.378;18.922;2023-03-26T17:09:00;17.10;;;4.97;;
58139;SDS011;53185;47.378;18.922;2023-03-26T17:11:54;11.45;;;4.03;;
58139;SDS011;53185;47.378;18.922;2023-03-26T17:14:33;6.72;;;3.08;;
58139;SDS011;53185;47.378;18.922;2023-03-26T17:28:46;8.15;;;3.05;;
58139;SDS011;53185;47.378;18.922;2023-03-26T17:31:24;8.50;;;3.40;;
58139;SDS011;53185;47.378;18.922;2023-03-26T17:42:24;9.20;;;5.28;;
58139;SDS011;53185;47.378;18.922;2023-03-26T17:44:54;18.83;;;5.40;;
58139;SDS011;53185;47.378;18.922;2023-03-26T17:47:30;9.52;;;4.15;;
58139;SDS011;53185;47.378;18.922;2023-03-26T17:55:16;9.30;;;4.30;;
58139;SDS011;53185;47.378;18.922;2023-03-26T17:57:50;13.70;;;5.55;;
58139;SDS011;53185;47.378;18.922;2023-03-26T18:00:51;10.48;;;4.57;;
58139;SDS011;53185;47.378;18.922;2023-03-26T18:03:45;10.27;;;4.80;;
58139;SDS011;53185;47.378;18.922;2023-03-26T18:09:36;6.45;;;3.90;;
58139;SDS011;53185;47.378;18.922;2023-03-26T18:15:45;10.45;;;4.82;;
58139;SDS011;53185;47.378;18.922;2023-03-26T18:18:30;10.10;;;4.72;;
58139;SDS011;53185;47.378;18.922;2023-03-26T18:21:12;12.45;;;4.60;;
58139;SDS011;53185;47.378;18.922;2023-03-26T18:23:47;11.18;;;6.18;;
58139;SDS011;53185;47.378;18.922;2023-03-26T18:26:22;15.18;;;7.10;;
58139;SDS011;53185;47.378;18.922;2023-03-26T18:29:15;17.67;;;5.85;;
58139;SDS011;53185;47.378;18.922;2023-03-26T18:31:57;12.98;;;5.93;;
58139;SDS011;53185;47.378;18.922;2023-03-26T18:34:31;15.18;;;5.82;;
58139;SDS011;53185;47.378;18.922;2023-03-26T18:39:40;19.52;;;7.97;;
58139;SDS011;53185;47.378;18.922;2023-03-26T18:42:16;17.85;;;7.55;;
58139;SDS011;53185;47.378;18.922;2023-03-26T18:44:51;18.75;;;9.55;;
58139;SDS011;53185;47.378;18.922;2023-03-26T18:47:33;15.48;;;7.82;;
58139;SDS011;53185;47.378;18.922;2023-03-26T18:50:12;15.30;;;7.90;;
58139;SDS011;53185;47.378;18.922;2023-03-26T18:53:13;14.98;;;7.10;;
58139;SDS011;53185;47.378;18.922;2023-03-26T18:55:47;18.12;;;7.32;;
58139;SDS011;53185;47.378;18.922;2023-03-26T18:58:33;14.63;;;7.12;;
58139;SDS011;53185;47.378;18.922;2023-03-26T19:01:08;18.37;;;7.90;;
58139;SDS011;53185;47.378;18.922;2023-03-26T19:03:50;12.68;;;6.40;;
58139;SDS011;53185;47.378;18.922;2023-03-26T19:06:20;21.00;;;6.80;;
58139;SDS011;53185;47.378;18.922;2023-03-26T19:08:51;20.23;;;6.53;;
58139;SDS011;53185;47.378;18.922;2023-03-26T19:11:21;11.40;;;6.20;;
58139;SDS011;53185;47.378;18.922;2023-03-26T19:14:04;18.75;;;7.95;;
58139;SDS011;53185;47.378;18.922;2023-03-26T19:17:01;15.00;;;6.40;;
58139;SDS011;53185;47.378;18.922;2023-03-26T19:19:35;14.27;;;6.03;;
58139;SDS011;53185;47.378;18.922;2023-03-26T19:22:05;13.80;;;7.07;;
58139;SDS011;53185;47.378;18.922;2023-03-26T19:24:36;15.38;;;8.27;;
58139;SDS011;53185;47.378;18.922;2023-03-26T19:27:05;20.60;;;10.57;;
58139;SDS011;53185;47.378;18.922;2023-03-26T19:29:37;20.02;;;10.00;;
58139;SDS011;53185;47.378;18.922;2023-03-26T19:32:18;20.33;;;11.05;;
58139;SDS011;53185;47.378;18.922;2023-03-26T19:34:50;37.13;;;14.30;;
58139;SDS011;53185;47.378;18.922;2023-03-26T19:37:22;28.62;;;13.55;;
58139;SDS011;53185;47.378;18.922;2023-03-26T19:40:18;28.75;;;13.27;;
58139;SDS011;53185;47.378;18.922;2023-03-26T19:42:48;31.02;;;12.82;;
58139;SDS011;53185;47.378;18.922;2023-03-26T19:45:21;34.28;;;12.70;;
58139;SDS011;53185;47.378;18.922;2023-03-26T19:47:52;23.05;;;8.73;;
58139;SDS011;53185;47.378;18.922;2023-03-26T19:50:42;16.45;;;6.43;;
58139;SDS011;53185;47.378;18.922;2023-03-26T19:53:28;18.27;;;7.93;;
58139;SDS011;53185;47.378;18.922;2023-03-26T19:58:40;15.30;;;8.30;;
58139;SDS011;53185;47.378;18.922;2023-03-26T20:01:17;14.13;;;5.62;;
58139;SDS011;53185;47.378;18.922;2023-03-26T20:03:59;12.95;;;6.07;;
58139;SDS011;53185;47.378;18.922;2023-03-26T20:06:34;13.73;;;6.68;;
58139;SDS011;53185;47.378;18.922;2023-03-26T20:09:12;11.93;;;5.30;;
58139;SDS011;53185;47.378;18.922;2023-03-26T20:11:42;15.98;;;7.05;;
58139;SDS011;53185;47.378;18.922;2023-03-26T20:14:17;13.70;;;7.00;;
58139;SDS011;53185;47.378;18.922;2023-03-26T20:16:59;17.52;;;7.50;;
58139;SDS011;53185;47.378;18.922;2023-03-26T20:19:29;12.73;;;5.72;;
58139;SDS011;53185;47.378;18.922;2023-03-26T20:21:57;15.18;;;6.87;;
58139;SDS011;53185;47.378;18.922;2023-03-26T20:24:25;19.62;;;6.40;;
58139;SDS011;53185;47.378;18.922;2023-03-26T20:26:54;13.98;;;6.25;;
58139;SDS011;53185;47.378;18.922;2023-03-26T20:29:22;14.32;;;5.95;;
58139;SDS011;53185;47.378;18.922;2023-03-26T20:31:51;9.18;;;4.50;;
58139;SDS011;53185;47.378;18.922;2023-03-26T20:34:22;9.48;;;4.45;;
58139;SDS011;53185;47.378;18.922;2023-03-26T20:36:51;12.43;;;5.40;;
58139;SDS011;53185;47.378;18.922;2023-03-26T20:39:23;12.60;;;6.35;;
58139;SDS011;53185;47.378;18.922;2023-03-26T20:41:52;17.62;;;5.82;;
58139;SDS011;53185;47.378;18.922;2023-03-26T20:44:22;12.55;;;6.12;;
58139;SDS011;53185;47.378;18.922;2023-03-26T20:46:53;14.30;;;6.28;;
58139;SDS011;53185;47.378;18.922;2023-03-26T20:49:22;13.15;;;6.07;;
58139;SDS011;53185;47.378;18.922;2023-03-26T20:51:52;17.50;;;7.65;;
58139;SDS011;53185;47.378;18.922;2023-03-26T20:54:22;22.37;;;7.53;;
58139;SDS011;53185;47.378;18.922;2023-03-26T20:56:51;21.02;;;8.48;;
58139;SDS011;53185;47.378;18.922;2023-03-26T20:59:21;19.25;;;8.68;;
58139;SDS011;53185;47.378;18.922;2023-03-26T21:01:53;27.52;;;10.55;;
58139;SDS011;53185;47.378;18.922;2023-03-26T21:04:22;19.40;;;8.90;;
58139;SDS011;53185;47.378;18.922;2023-03-26T21:06:50;18.95;;;7.97;;
58139;SDS011;53185;47.378;18.922;2023-03-26T21:09:29;10.77;;;4.43;;
58139;SDS011;53185;47.378;18.922;2023-03-26T21:14:32;3.62;;;2.37;;
58139;SDS011;53185;47.378;18.922;2023-03-26T21:17:14;6.85;;;1.90;;
58139;SDS011;53185;47.378;18.922;2023-03-26T21:19:46;6.60;;;2.45;;
58139;SDS011;53185;47.378;18.922;2023-03-26T21:22:27;5.90;;;2.37;;
58139;SDS011;53185;47.378;18.922;2023-03-26T21:31:12;5.05;;;2.35;;
58139;SDS011;53185;47.378;18.922;2023-03-26T21:33:44;3.17;;;2.00;;
58139;SDS011;53185;47.378;18.922;2023-03-26T21:36:14;9.98;;;2.22;;
58139;SDS011;53185;47.378;18.922;2023-03-26T21:38:44;4.05;;;1.85;;
58139;SDS011;53185;47.378;18.922;2023-03-26T21:41:19;5.80;;;2.08;;
58139;SDS011;53185;47.378;18.922;2023-03-26T21:43:53;9.02;;;2.00;;
58139;SDS011;53185;47.378;18.922;2023-03-26T21:46:20;2.97;;;1.20;;
58139;SDS011;53185;47.378;18.922;2023-03-26T21:48:47;3.10;;;1.42;;
58139;SDS011;53185;47.378;18.922;2023-03-26T21:51:18;2.65;;;1.33;;
58139;SDS011;53185;47.378;18.922;2023-03-26T21:53:46;3.20;;;1.37;;
58139;SDS011;53185;47.378;18.922;2023-03-26T22:01:42;2.58;;;1.35;;
58139;SDS011;53185;47.378;18.922;2023-03-26T22:04:25;4.10;;;1.70;;
58139;SDS011;53185;47.378;18.922;2023-03-26T22:07:02;5.10;;;1.90;;
58139;SDS011;53185;47.378;18.922;2023-03-26T22:09:36;4.90;;;1.50;;
58139;SDS011;53185;47.378;18.922;2023-03-26T22:12:04;2.08;;;1.25;;
58139;SDS011;53185;47.378;18.922;2023-03-26T22:14:31;3.28;;;1.25;;
58139;SDS011;53185;47.378;18.922;2023-03-26T22:16:59;2.42;;;1.10;;
58139;SDS011;53185;47.378;18.922;2023-03-26T22:19:26;4.35;;;1.35;;
58139;SDS011;53185;47.378;18.922;2023-03-26T22:21:56;6.28;;;1.42;;
58139;SDS011;53185;47.378;18.922;2023-03-26T22:24:27;2.95;;;1.40;;
58139;SDS011;53185;47.378;18.922;2023-03-26T22:26:54;2.80;;;0.70;;